sensor_id;sensor_type;location;lat;lon;timestamp;temperature;humidity
41838;DHT22;27511;52.042;5.178;2023-11-21T00:00:14;11.10;99.90
41838;DHT22;27511;52.042;5.178;2023-11-21T00:02:40;11.10;99.90
41838;DHT22;27511;52.042;5.178;2023-11-21T00:05:10;11.10;99.90
41838;DHT22;27511;52.042;5.178;2023-11-21T00:07:37;11.00;99.90
41838;DHT22;27511;52.042;5.178;2023-11-21T00:10:03;11.10;99.90
41838;DHT22;27511;52.042;5.178;2023-11-21T00:12:33;11.10;99.90
41838;DHT22;27511;52.042;5.178;2023-11-21T00:14:59;11.10;99.90
41838;DHT22;27511;52.042;5.178;2023-11-21T00:17:25;11.20;99.90
41838;DHT22;27511;52.042;5.178;2023-11-21T00:19:50;11.00;99.90
41838;DHT22;27511;52.042;5.178;2023-11-21T00:22:19;11.10;99.90
41838;DHT22;27511;52.042;5.178;2023-11-21T00:24:46;10.90;99.90
41838;DHT22;27511;52.042;5.178;2023-11-21T00:27:11;11.00;99.90
41838;DHT22;27511;52.042;5.178;2023-11-21T00:29:37;11.00;99.90
41838;DHT22;27511;52.042;5.178;2023-11-21T00:32:04;11.00;99.90
41838;DHT22;27511;52.042;5.178;2023-11-21T00:34:31;11.00;99.90
41838;DHT22;27511;52.042;5.178;2023-11-21T00:36:56;10.90;99.90
41838;DHT22;27511;52.042;5.178;2023-11-21T00:39:22;11.00;99.90
41838;DHT22;27511;52.042;5.178;2023-11-21T00:41:47;10.90;99.90
41838;DHT22;27511;52.042;5.178;2023-11-21T00:44:16;10.90;99.90
41838;DHT22;27511;52.042;5.178;2023-11-21T00:46:42;11.00;99.90
41838;DHT22;27511;52.042;5.178;2023-11-21T00:49:08;10.90;99.90
41838;DHT22;27511;52.042;5.178;2023-11-21T00:51:34;10.80;99.90
41838;DHT22;27511;52.042;5.178;2023-11-21T00:53:59;10.90;99.90
41838;DHT22;27511;52.042;5.178;2023-11-21T00:56:25;10.80;99.90
41838;DHT22;27511;52.042;5.178;2023-11-21T00:58:51;10.80;99.90
41838;DHT22;27511;52.042;5.178;2023-11-21T01:01:18;10.80;99.90
41838;DHT22;27511;52.042;5.178;2023-11-21T01:03:46;10.70;99.90
41838;DHT22;27511;52.042;5.178;2023-11-21T01:06:11;10.70;99.90
41838;DHT22;27511;52.042;5.178;2023-11-21T01:08:37;10.70;99.90
41838;DHT22;27511;52.042;5.178;2023-11-21T01:11:03;10.70;99.90
41838;DHT22;27511;52.042;5.178;2023-11-21T01:13:49;10.70;99.90
41838;DHT22;27511;52.042;5.178;2023-11-21T01:16:31;10.60;99.90
41838;DHT22;27511;52.042;5.178;2023-11-21T01:19:00;10.60;99.90
41838;DHT22;27511;52.042;5.178;2023-11-21T01:21:25;10.60;99.90
41838;DHT22;27511;52.042;5.178;2023-11-21T01:23:51;10.60;99.90
41838;DHT22;27511;52.042;5.178;2023-11-21T01:26:16;10.50;99.90
41838;DHT22;27511;52.042;5.178;2023-11-21T01:28:42;10.60;99.90
41838;DHT22;27511;52.042;5.178;2023-11-21T01:31:07;10.50;99.90
41838;DHT22;27511;52.042;5.178;2023-11-21T01:33:33;10.50;99.90
41838;DHT22;27511;52.042;5.178;2023-11-21T01:35:59;10.40;99.90
41838;DHT22;27511;52.042;5.178;2023-11-21T01:38:25;10.50;99.90
41838;DHT22;27511;52.042;5.178;2023-11-21T01:40:51;10.50;99.90
41838;DHT22;27511;52.042;5.178;2023-11-21T01:43:16;10.60;99.90
41838;DHT22;27511;52.042;5.178;2023-11-21T01:45:42;10.50;99.90
41838;DHT22;27511;52.042;5.178;2023-11-21T01:48:08;10.60;99.90
41838;DHT22;27511;52.042;5.178;2023-11-21T01:50:34;10.50;99.90
41838;DHT22;27511;52.042;5.178;2023-11-21T01:53:00;10.50;99.90
41838;DHT22;27511;52.042;5.178;2023-11-21T01:55:27;10.50;99.90
41838;DHT22;27511;52.042;5.178;2023-11-21T01:57:54;10.50;99.90
41838;DHT22;27511;52.042;5.178;2023-11-21T02:00:19;10.50;99.90
41838;DHT22;27511;52.042;5.178;2023-11-21T02:02:46;10.60;99.90
41838;DHT22;27511;52.042;5.178;2023-11-21T02:05:14;10.60;99.90
41838;DHT22;27511;52.042;5.178;2023-11-21T02:07:40;10.60;99.90
41838;DHT22;27511;52.042;5.178;2023-11-21T02:10:07;10.60;99.90
41838;DHT22;27511;52.042;5.178;2023-11-21T02:12:34;10.70;99.90
41838;DHT22;27511;52.042;5.178;2023-11-21T02:15:01;10.70;99.90
41838;DHT22;27511;52.042;5.178;2023-11-21T02:17:28;10.70;99.90
41838;DHT22;27511;52.042;5.178;2023-11-21T02:19:54;10.80;99.90
41838;DHT22;27511;52.042;5.178;2023-11-21T02:22:19;10.80;99.90
41838;DHT22;27511;52.042;5.178;2023-11-21T02:24:46;10.90;99.90
41838;DHT22;27511;52.042;5.178;2023-11-21T02:27:13;10.90;99.90
41838;DHT22;27511;52.042;5.178;2023-11-21T02:29:39;10.80;99.90
41838;DHT22;27511;52.042;5.178;2023-11-21T02:32:04;10.90;99.90
41838;DHT22;27511;52.042;5.178;2023-11-21T02:34:30;10.80;99.90
41838;DHT22;27511;52.042;5.178;2023-11-21T02:36:56;10.90;99.90
41838;DHT22;27511;52.042;5.178;2023-11-21T02:39:22;11.00;99.90
41838;DHT22;27511;52.042;5.178;2023-11-21T02:41:49;11.20;99.90
41838;DHT22;27511;52.042;5.178;2023-11-21T02:44:14;11.20;99.90
41838;DHT22;27511;52.042;5.178;2023-11-21T02:46:40;11.20;99.90
41838;DHT22;27511;52.042;5.178;2023-11-21T02:49:06;11.30;99.90
41838;DHT22;27511;52.042;5.178;2023-11-21T02:51:32;11.30;99.90
41838;DHT22;27511;52.042;5.178;2023-11-21T02:53:58;11.20;99.90
41838;DHT22;27511;52.042;5.178;2023-11-21T02:56:27;11.20;99.90
41838;DHT22;27511;52.042;5.178;2023-11-21T02:58:55;11.20;99.90
41838;DHT22;27511;52.042;5.178;2023-11-21T03:01:21;11.30;99.90
41838;DHT22;27511;52.042;5.178;2023-11-21T03:03:49;11.40;99.90
41838;DHT22;27511;52.042;5.178;2023-11-21T03:06:17;11.40;99.90
41838;DHT22;27511;52.042;5.178;2023-11-21T03:08:43;11.40;99.90
41838;DHT22;27511;52.042;5.178;2023-11-21T03:11:08;11.40;99.90
41838;DHT22;27511;52.042;5.178;2023-11-21T03:13:34;11.40;99.90
41838;DHT22;27511;52.042;5.178;2023-11-21T03:15:59;11.40;99.90
41838;DHT22;27511;52.042;5.178;2023-11-21T03:18:25;11.40;99.90
41838;DHT22;27511;52.042;5.178;2023-11-21T03:20:52;11.50;99.90
41838;DHT22;27511;52.042;5.178;2023-11-21T03:23:18;11.50;99.90
41838;DHT22;27511;52.042;5.178;2023-11-21T03:25:44;11.40;99.90
41838;DHT22;27511;52.042;5.178;2023-11-21T03:28:09;11.50;99.90
41838;DHT22;27511;52.042;5.178;2023-11-21T03:30:35;11.50;99.90
41838;DHT22;27511;52.042;5.178;2023-11-21T03:33:00;11.60;99.90
41838;DHT22;27511;52.042;5.178;2023-11-21T03:35:26;11.60;99.90
41838;DHT22;27511;52.042;5.178;2023-11-21T03:37:53;11.60;99.90
41838;DHT22;27511;52.042;5.178;2023-11-21T03:40:19;11.60;99.90
41838;DHT22;27511;52.042;5.178;2023-11-21T03:42:45;11.60;99.90
41838;DHT22;27511;52.042;5.178;2023-11-21T03:45:11;11.60;99.90
41838;DHT22;27511;52.042;5.178;2023-11-21T03:47:37;11.70;99.90
41838;DHT22;27511;52.042;5.178;2023-11-21T03:50:03;11.60;99.90
41838;DHT22;27511;52.042;5.178;2023-11-21T03:52:29;11.60;99.90
41838;DHT22;27511;52.042;5.178;2023-11-21T03:54:55;11.70;99.90
41838;DHT22;27511;52.042;5.178;2023-11-21T03:57:21;11.80;99.90
41838;DHT22;27511;52.042;5.178;2023-11-21T03:59:46;11.90;99.90
41838;DHT22;27511;52.042;5.178;2023-11-21T04:02:12;11.90;99.90
41838;DHT22;27511;52.042;5.178;2023-11-21T04:04:38;11.90;99.90
41838;DHT22;27511;52.042;5.178;2023-11-21T04:07:03;12.00;99.90
41838;DHT22;27511;52.042;5.178;2023-11-21T04:09:29;12.00;99.90
41838;DHT22;27511;52.042;5.178;2023-11-21T04:11:55;11.90;99.90
41838;DHT22;27511;52.042;5.178;2023-11-21T04:14:21;11.90;99.90
41838;DHT22;27511;52.042;5.178;2023-11-21T04:16:47;11.90;99.90
41838;DHT22;27511;52.042;5.178;2023-11-21T04:19:14;12.00;99.90
41838;DHT22;27511;52.042;5.178;2023-11-21T04:21:42;11.90;99.90
41838;DHT22;27511;52.042;5.178;2023-11-21T04:24:08;12.00;99.90
41838;DHT22;27511;52.042;5.178;2023-11-21T04:26:34;11.90;99.90
41838;DHT22;27511;52.042;5.178;2023-11-21T04:29:00;11.90;99.90
41838;DHT22;27511;52.042;5.178;2023-11-21T04:31:25;11.80;99.90
41838;DHT22;27511;52.042;5.178;2023-11-21T04:33:51;11.90;99.90
41838;DHT22;27511;52.042;5.178;2023-11-21T04:36:16;11.90;99.90
41838;DHT22;27511;52.042;5.178;2023-11-21T04:38:42;11.90;99.90
41838;DHT22;27511;52.042;5.178;2023-11-21T04:41:08;11.90;99.90
41838;DHT22;27511;52.042;5.178;2023-11-21T04:43:34;12.00;99.90
41838;DHT22;27511;52.042;5.178;2023-11-21T04:45:59;12.00;99.90
41838;DHT22;27511;52.042;5.178;2023-11-21T04:48:25;12.00;99.90
41838;DHT22;27511;52.042;5.178;2023-11-21T04:50:51;12.00;99.90
41838;DHT22;27511;52.042;5.178;2023-11-21T04:53:17;12.00;99.90
41838;DHT22;27511;52.042;5.178;2023-11-21T04:55:43;12.00;99.90
41838;DHT22;27511;52.042;5.178;2023-11-21T04:58:09;12.00;99.90
41838;DHT22;27511;52.042;5.178;2023-11-21T05:00:35;12.00;99.90
41838;DHT22;27511;52.042;5.178;2023-11-21T05:03:02;12.00;99.90
41838;DHT22;27511;52.042;5.178;2023-11-21T05:05:28;12.00;99.90
41838;DHT22;27511;52.042;5.178;2023-11-21T05:07:55;12.00;99.90
41838;DHT22;27511;52.042;5.178;2023-11-21T05:10:20;12.10;99.90
41838;DHT22;27511;52.042;5.178;2023-11-21T05:12:47;12.10;99.90
41838;DHT22;27511;52.042;5.178;2023-11-21T05:15:15;12.10;99.90
41838;DHT22;27511;52.042;5.178;2023-11-21T05:17:42;12.20;99.90
41838;DHT22;27511;52.042;5.178;2023-11-21T05:20:10;12.30;99.90
41838;DHT22;27511;52.042;5.178;2023-11-21T05:22:36;12.40;99.90
41838;DHT22;27511;52.042;5.178;2023-11-21T05:25:03;12.50;99.90
41838;DHT22;27511;52.042;5.178;2023-11-21T05:27:29;12.50;99.90
41838;DHT22;27511;52.042;5.178;2023-11-21T05:29:56;12.50;99.90
41838;DHT22;27511;52.042;5.178;2023-11-21T05:32:23;12.30;99.90
41838;DHT22;27511;52.042;5.178;2023-11-21T05:34:49;12.30;99.90
41838;DHT22;27511;52.042;5.178;2023-11-21T05:37:14;12.40;99.90
41838;DHT22;27511;52.042;5.178;2023-11-21T05:39:40;12.40;99.90
41838;DHT22;27511;52.042;5.178;2023-11-21T05:42:06;12.40;99.90
41838;DHT22;27511;52.042;5.178;2023-11-21T05:44:31;12.40;99.90
41838;DHT22;27511;52.042;5.178;2023-11-21T05:46:57;12.50;99.90
41838;DHT22;27511;52.042;5.178;2023-11-21T05:49:24;12.40;99.90
41838;DHT22;27511;52.042;5.178;2023-11-21T05:51:53;12.50;99.90
41838;DHT22;27511;52.042;5.178;2023-11-21T05:54:19;12.50;99.90
41838;DHT22;27511;52.042;5.178;2023-11-21T05:56:46;12.50;99.90
41838;DHT22;27511;52.042;5.178;2023-11-21T05:59:12;12.50;99.90
41838;DHT22;27511;52.042;5.178;2023-11-21T06:01:37;12.50;99.90
41838;DHT22;27511;52.042;5.178;2023-11-21T06:04:04;12.60;99.90
41838;DHT22;27511;52.042;5.178;2023-11-21T06:06:30;12.50;99.90
41838;DHT22;27511;52.042;5.178;2023-11-21T06:08:56;12.50;99.90
41838;DHT22;27511;52.042;5.178;2023-11-21T06:11:22;12.40;99.90
41838;DHT22;27511;52.042;5.178;2023-11-21T06:13:48;12.50;99.90
41838;DHT22;27511;52.042;5.178;2023-11-21T06:16:15;12.50;99.90
41838;DHT22;27511;52.042;5.178;2023-11-21T06:18:42;12.40;99.90
41838;DHT22;27511;52.042;5.178;2023-11-21T06:21:12;12.40;99.90
41838;DHT22;27511;52.042;5.178;2023-11-21T06:23:38;12.40;99.90
41838;DHT22;27511;52.042;5.178;2023-11-21T06:26:04;12.40;99.90
41838;DHT22;27511;52.042;5.178;2023-11-21T06:28:31;12.30;99.90
41838;DHT22;27511;52.042;5.178;2023-11-21T06:30:57;12.20;99.90
41838;DHT22;27511;52.042;5.178;2023-11-21T06:33:31;12.20;99.90
41838;DHT22;27511;52.042;5.178;2023-11-21T06:35:56;12.20;99.90
41838;DHT22;27511;52.042;5.178;2023-11-21T06:38:22;12.30;99.90
41838;DHT22;27511;52.042;5.178;2023-11-21T06:40:48;12.40;99.90
41838;DHT22;27511;52.042;5.178;2023-11-21T06:43:13;12.40;99.90
41838;DHT22;27511;52.042;5.178;2023-11-21T06:45:39;12.50;99.90
41838;DHT22;27511;52.042;5.178;2023-11-21T06:48:05;12.50;99.90
41838;DHT22;27511;52.042;5.178;2023-11-21T06:50:31;12.50;99.90
41838;DHT22;27511;52.042;5.178;2023-11-21T06:52:56;12.60;99.90
41838;DHT22;27511;52.042;5.178;2023-11-21T06:55:22;12.70;99.90
41838;DHT22;27511;52.042;5.178;2023-11-21T06:57:47;12.70;99.90
41838;DHT22;27511;52.042;5.178;2023-11-21T07:00:15;12.70;99.90
41838;DHT22;27511;52.042;5.178;2023-11-21T07:02:43;12.70;99.90
41838;DHT22;27511;52.042;5.178;2023-11-21T07:05:08;12.70;99.90
41838;DHT22;27511;52.042;5.178;2023-11-21T07:07:34;12.70;99.90
41838;DHT22;27511;52.042;5.178;2023-11-21T07:10:01;12.80;99.90
41838;DHT22;27511;52.042;5.178;2023-11-21T07:12:32;12.80;99.90
41838;DHT22;27511;52.042;5.178;2023-11-21T07:14:58;12.80;99.90
41838;DHT22;27511;52.042;5.178;2023-11-21T07:17:23;12.90;99.90
41838;DHT22;27511;52.042;5.178;2023-11-21T07:19:49;12.80;99.90
41838;DHT22;27511;52.042;5.178;2023-11-21T07:22:15;12.90;99.90
41838;DHT22;27511;52.042;5.178;2023-11-21T07:24:51;12.90;99.90
41838;DHT22;27511;52.042;5.178;2023-11-21T07:27:17;12.90;99.90
41838;DHT22;27511;52.042;5.178;2023-11-21T07:29:42;12.80;99.90
41838;DHT22;27511;52.042;5.178;2023-11-21T07:32:08;12.90;99.90
41838;DHT22;27511;52.042;5.178;2023-11-21T07:34:35;12.90;99.90
41838;DHT22;27511;52.042;5.178;2023-11-21T07:37:01;12.80;99.90
41838;DHT22;27511;52.042;5.178;2023-11-21T07:39:27;12.80;99.90
41838;DHT22;27511;52.042;5.178;2023-11-21T07:41:52;13.00;99.90
41838;DHT22;27511;52.042;5.178;2023-11-21T07:44:18;13.10;99.90
41838;DHT22;27511;52.042;5.178;2023-11-21T07:46:45;13.00;99.90
41838;DHT22;27511;52.042;5.178;2023-11-21T07:49:11;13.10;99.90
41838;DHT22;27511;52.042;5.178;2023-11-21T07:51:37;13.00;99.90
41838;DHT22;27511;52.042;5.178;2023-11-21T07:54:02;13.10;99.90
41838;DHT22;27511;52.042;5.178;2023-11-21T07:56:28;13.10;99.90
41838;DHT22;27511;52.042;5.178;2023-11-21T07:58:53;13.10;99.90
41838;DHT22;27511;52.042;5.178;2023-11-21T08:01:19;13.20;99.90
41838;DHT22;27511;52.042;5.178;2023-11-21T08:03:45;13.20;99.90
41838;DHT22;27511;52.042;5.178;2023-11-21T08:06:10;13.30;99.90
41838;DHT22;27511;52.042;5.178;2023-11-21T08:08:37;13.40;99.90
41838;DHT22;27511;52.042;5.178;2023-11-21T08:11:02;13.40;99.90
41838;DHT22;27511;52.042;5.178;2023-11-21T08:13:29;13.40;99.90
41838;DHT22;27511;52.042;5.178;2023-11-21T08:15:58;13.40;99.90
41838;DHT22;27511;52.042;5.178;2023-11-21T08:18:30;13.40;99.90
41838;DHT22;27511;52.042;5.178;2023-11-21T08:20:56;13.40;99.90
41838;DHT22;27511;52.042;5.178;2023-11-21T08:23:22;13.50;99.90
41838;DHT22;27511;52.042;5.178;2023-11-21T08:25:52;13.50;99.90
41838;DHT22;27511;52.042;5.178;2023-11-21T08:28:18;13.50;99.90
41838;DHT22;27511;52.042;5.178;2023-11-21T08:30:44;13.50;99.90
41838;DHT22;27511;52.042;5.178;2023-11-21T08:33:09;13.60;99.90
41838;DHT22;27511;52.042;5.178;2023-11-21T08:35:37;13.50;99.90
41838;DHT22;27511;52.042;5.178;2023-11-21T08:38:03;13.60;99.90
41838;DHT22;27511;52.042;5.178;2023-11-21T08:40:29;13.60;99.90
41838;DHT22;27511;52.042;5.178;2023-11-21T08:42:54;13.70;99.90
41838;DHT22;27511;52.042;5.178;2023-11-21T08:45:21;13.70;99.90
41838;DHT22;27511;52.042;5.178;2023-11-21T08:47:47;13.80;99.90
41838;DHT22;27511;52.042;5.178;2023-11-21T08:50:13;13.70;99.90
41838;DHT22;27511;52.042;5.178;2023-11-21T08:52:40;13.80;99.90
41838;DHT22;27511;52.042;5.178;2023-11-21T08:55:06;13.70;99.90
41838;DHT22;27511;52.042;5.178;2023-11-21T08:57:38;13.80;99.90
41838;DHT22;27511;52.042;5.178;2023-11-21T09:00:04;13.80;99.90
41838;DHT22;27511;52.042;5.178;2023-11-21T09:02:33;13.70;99.90
41838;DHT22;27511;52.042;5.178;2023-11-21T09:05:05;13.80;99.90
41838;DHT22;27511;52.042;5.178;2023-11-21T09:07:31;13.90;99.90
41838;DHT22;27511;52.042;5.178;2023-11-21T09:09:57;13.90;99.90
41838;DHT22;27511;52.042;5.178;2023-11-21T09:12:23;13.90;99.90
41838;DHT22;27511;52.042;5.178;2023-11-21T09:14:50;13.90;99.90
41838;DHT22;27511;52.042;5.178;2023-11-21T09:17:16;14.10;99.90
41838;DHT22;27511;52.042;5.178;2023-11-21T09:19:42;14.20;99.90
41838;DHT22;27511;52.042;5.178;2023-11-21T09:22:10;14.10;99.90
41838;DHT22;27511;52.042;5.178;2023-11-21T09:24:36;14.20;99.90
41838;DHT22;27511;52.042;5.178;2023-11-21T09:27:01;14.10;99.90
41838;DHT22;27511;52.042;5.178;2023-11-21T09:29:27;14.10;99.90
41838;DHT22;27511;52.042;5.178;2023-11-21T09:31:53;14.10;99.90
41838;DHT22;27511;52.042;5.178;2023-11-21T09:34:20;14.10;99.90
41838;DHT22;27511;52.042;5.178;2023-11-21T09:36:46;14.20;99.90
41838;DHT22;27511;52.042;5.178;2023-11-21T09:39:11;14.10;99.90
41838;DHT22;27511;52.042;5.178;2023-11-21T09:41:49;14.20;99.90
41838;DHT22;27511;52.042;5.178;2023-11-21T09:44:18;14.20;99.90
41838;DHT22;27511;52.042;5.178;2023-11-21T09:46:47;14.30;99.90
41838;DHT22;27511;52.042;5.178;2023-11-21T09:49:18;14.20;99.90
41838;DHT22;27511;52.042;5.178;2023-11-21T09:51:48;14.20;99.90
41838;DHT22;27511;52.042;5.178;2023-11-21T09:54:15;14.20;99.90
41838;DHT22;27511;52.042;5.178;2023-11-21T09:56:43;14.00;99.90
41838;DHT22;27511;52.042;5.178;2023-11-21T09:59:13;14.10;99.90
41838;DHT22;27511;52.042;5.178;2023-11-21T10:01:40;14.00;99.90
41838;DHT22;27511;52.042;5.178;2023-11-21T10:04:06;14.00;99.90
41838;DHT22;27511;52.042;5.178;2023-11-21T10:06:40;13.90;99.90
41838;DHT22;27511;52.042;5.178;2023-11-21T10:09:12;14.00;99.90
41838;DHT22;27511;52.042;5.178;2023-11-21T10:11:41;13.90;99.90
41838;DHT22;27511;52.042;5.178;2023-11-21T10:14:11;13.80;99.90
41838;DHT22;27511;52.042;5.178;2023-11-21T10:16:39;14.00;99.90
41838;DHT22;27511;52.042;5.178;2023-11-21T10:19:06;13.90;99.90
41838;DHT22;27511;52.042;5.178;2023-11-21T10:21:33;14.00;99.90
41838;DHT22;27511;52.042;5.178;2023-11-21T10:23:59;14.00;99.90
41838;DHT22;27511;52.042;5.178;2023-11-21T10:26:29;14.00;99.90
41838;DHT22;27511;52.042;5.178;2023-11-21T10:29:01;13.90;99.90
41838;DHT22;27511;52.042;5.178;2023-11-21T10:31:30;13.90;99.90
41838;DHT22;27511;52.042;5.178;2023-11-21T10:34:15;14.00;99.90
41838;DHT22;27511;52.042;5.178;2023-11-21T10:36:41;14.00;99.90
41838;DHT22;27511;52.042;5.178;2023-11-21T10:39:07;13.90;99.90
41838;DHT22;27511;52.042;5.178;2023-11-21T10:41:33;13.90;99.90
41838;DHT22;27511;52.042;5.178;2023-11-21T10:44:00;13.70;99.90
41838;DHT22;27511;52.042;5.178;2023-11-21T10:46:29;13.70;99.90
41838;DHT22;27511;52.042;5.178;2023-11-21T10:48:56;13.70;99.90
41838;DHT22;27511;52.042;5.178;2023-11-21T10:51:22;13.80;99.90
41838;DHT22;27511;52.042;5.178;2023-11-21T10:53:51;13.70;99.90
41838;DHT22;27511;52.042;5.178;2023-11-21T10:56:18;13.70;99.90
41838;DHT22;27511;52.042;5.178;2023-11-21T10:58:48;13.70;99.90
41838;DHT22;27511;52.042;5.178;2023-11-21T11:01:17;13.70;99.90
41838;DHT22;27511;52.042;5.178;2023-11-21T11:03:43;13.80;99.90
41838;DHT22;27511;52.042;5.178;2023-11-21T11:06:09;13.60;99.90
41838;DHT22;27511;52.042;5.178;2023-11-21T11:08:37;13.40;99.90
41838;DHT22;27511;52.042;5.178;2023-11-21T11:11:07;13.40;99.90
41838;DHT22;27511;52.042;5.178;2023-11-21T11:13:34;13.60;99.90
41838;DHT22;27511;52.042;5.178;2023-11-21T11:16:02;13.70;99.90
41838;DHT22;27511;52.042;5.178;2023-11-21T11:18:29;13.60;99.90
41838;DHT22;27511;52.042;5.178;2023-11-21T11:21:22;13.80;99.90
41838;DHT22;27511;52.042;5.178;2023-11-21T11:24:13;13.80;99.90
41838;DHT22;27511;52.042;5.178;2023-11-21T11:26:50;13.90;99.90
41838;DHT22;27511;52.042;5.178;2023-11-21T11:29:37;13.70;99.90
41838;DHT22;27511;52.042;5.178;2023-11-21T11:32:16;13.70;99.90
41838;DHT22;27511;52.042;5.178;2023-11-21T11:37:50;13.70;99.90
41838;DHT22;27511;52.042;5.178;2023-11-21T11:40:16;13.80;99.90
41838;DHT22;27511;52.042;5.178;2023-11-21T11:42:58;13.70;99.90
41838;DHT22;27511;52.042;5.178;2023-11-21T11:45:33;13.60;99.90
41838;DHT22;27511;52.042;5.178;2023-11-21T11:48:00;13.60;99.90
41838;DHT22;27511;52.042;5.178;2023-11-21T11:50:26;13.50;99.90
41838;DHT22;27511;52.042;5.178;2023-11-21T11:52:53;13.50;99.90
41838;DHT22;27511;52.042;5.178;2023-11-21T11:55:24;13.50;99.90
41838;DHT22;27511;52.042;5.178;2023-11-21T11:57:50;13.40;99.90
41838;DHT22;27511;52.042;5.178;2023-11-21T12:00:20;13.40;99.90
41838;DHT22;27511;52.042;5.178;2023-11-21T12:02:53;13.50;99.90
41838;DHT22;27511;52.042;5.178;2023-11-21T12:05:21;13.50;99.90
41838;DHT22;27511;52.042;5.178;2023-11-21T12:07:50;13.60;99.90
41838;DHT22;27511;52.042;5.178;2023-11-21T12:10:19;13.70;99.90
41838;DHT22;27511;52.042;5.178;2023-11-21T12:12:49;13.80;99.90
41838;DHT22;27511;52.042;5.178;2023-11-21T12:15:16;13.80;99.90
41838;DHT22;27511;52.042;5.178;2023-11-21T12:17:43;13.90;99.90
41838;DHT22;27511;52.042;5.178;2023-11-21T12:20:09;13.90;99.90
41838;DHT22;27511;52.042;5.178;2023-11-21T12:22:49;13.90;99.90
41838;DHT22;27511;52.042;5.178;2023-11-21T12:25:16;13.90;99.90
41838;DHT22;27511;52.042;5.178;2023-11-21T12:27:45;14.00;99.90
41838;DHT22;27511;52.042;5.178;2023-11-21T12:30:12;13.90;99.90
41838;DHT22;27511;52.042;5.178;2023-11-21T12:32:42;14.00;99.90
41838;DHT22;27511;52.042;5.178;2023-11-21T12:35:09;14.10;99.90
41838;DHT22;27511;52.042;5.178;2023-11-21T12:37:36;13.90;99.90
41838;DHT22;27511;52.042;5.178;2023-11-21T12:40:04;13.90;99.90
41838;DHT22;27511;52.042;5.178;2023-11-21T12:42:29;13.90;99.90
41838;DHT22;27511;52.042;5.178;2023-11-21T12:47:42;13.80;99.90
41838;DHT22;27511;52.042;5.178;2023-11-21T12:50:07;13.80;99.90
41838;DHT22;27511;52.042;5.178;2023-11-21T12:52:42;13.90;99.90
41838;DHT22;27511;52.042;5.178;2023-11-21T12:55:22;13.90;99.90
41838;DHT22;27511;52.042;5.178;2023-11-21T12:57:53;14.00;99.90
41838;DHT22;27511;52.042;5.178;2023-11-21T13:00:31;13.80;99.90
41838;DHT22;27511;52.042;5.178;2023-11-21T13:02:59;13.80;99.90
41838;DHT22;27511;52.042;5.178;2023-11-21T13:05:30;13.60;99.90
41838;DHT22;27511;52.042;5.178;2023-11-21T13:07:57;13.70;99.90
41838;DHT22;27511;52.042;5.178;2023-11-21T13:10:27;13.80;99.90
41838;DHT22;27511;52.042;5.178;2023-11-21T13:12:59;13.90;99.90
41838;DHT22;27511;52.042;5.178;2023-11-21T13:15:26;14.00;99.90
41838;DHT22;27511;52.042;5.178;2023-11-21T13:17:53;14.10;99.90
41838;DHT22;27511;52.042;5.178;2023-11-21T13:20:23;14.10;99.90
41838;DHT22;27511;52.042;5.178;2023-11-21T13:22:50;14.20;99.90
41838;DHT22;27511;52.042;5.178;2023-11-21T13:25:23;14.20;99.90
41838;DHT22;27511;52.042;5.178;2023-11-21T13:27:48;14.20;99.90
41838;DHT22;27511;52.042;5.178;2023-11-21T13:30:15;14.20;99.90
41838;DHT22;27511;52.042;5.178;2023-11-21T13:32:45;14.30;99.90
41838;DHT22;27511;52.042;5.178;2023-11-21T13:35:16;14.20;99.90
41838;DHT22;27511;52.042;5.178;2023-11-21T13:37:56;14.20;99.90
41838;DHT22;27511;52.042;5.178;2023-11-21T13:40:25;14.20;99.90
41838;DHT22;27511;52.042;5.178;2023-11-21T13:42:53;14.20;99.90
41838;DHT22;27511;52.042;5.178;2023-11-21T13:45:21;14.10;99.90
41838;DHT22;27511;52.042;5.178;2023-11-21T13:47:51;13.90;99.90
41838;DHT22;27511;52.042;5.178;2023-11-21T13:50:18;14.00;99.90
41838;DHT22;27511;52.042;5.178;2023-11-21T13:52:49;14.10;99.90
41838;DHT22;27511;52.042;5.178;2023-11-21T13:55:15;14.10;99.90
41838;DHT22;27511;52.042;5.178;2023-11-21T13:57:44;14.10;99.90
41838;DHT22;27511;52.042;5.178;2023-11-21T14:00:15;13.90;99.90
41838;DHT22;27511;52.042;5.178;2023-11-21T14:02:59;14.00;99.90
41838;DHT22;27511;52.042;5.178;2023-11-21T14:05:27;13.90;99.90
41838;DHT22;27511;52.042;5.178;2023-11-21T14:07:57;13.80;99.90
41838;DHT22;27511;52.042;5.178;2023-11-21T14:10:30;13.80;99.90
41838;DHT22;27511;52.042;5.178;2023-11-21T14:13:11;13.90;99.90
41838;DHT22;27511;52.042;5.178;2023-11-21T14:15:39;13.80;99.90
41838;DHT22;27511;52.042;5.178;2023-11-21T14:18:08;13.70;99.90
41838;DHT22;27511;52.042;5.178;2023-11-21T14:20:39;13.60;99.90
41838;DHT22;27511;52.042;5.178;2023-11-21T14:23:06;13.80;99.90
41838;DHT22;27511;52.042;5.178;2023-11-21T14:25:35;13.80;99.90
41838;DHT22;27511;52.042;5.178;2023-11-21T14:28:07;13.80;99.90
41838;DHT22;27511;52.042;5.178;2023-11-21T14:30:33;13.80;99.90
41838;DHT22;27511;52.042;5.178;2023-11-21T14:33:02;13.60;99.90
41838;DHT22;27511;52.042;5.178;2023-11-21T14:35:27;13.60;99.90
41838;DHT22;27511;52.042;5.178;2023-11-21T14:37:55;13.60;99.90
41838;DHT22;27511;52.042;5.178;2023-11-21T14:40:22;13.40;99.90
41838;DHT22;27511;52.042;5.178;2023-11-21T14:42:50;13.30;99.90
41838;DHT22;27511;52.042;5.178;2023-11-21T14:45:19;13.30;99.90
41838;DHT22;27511;52.042;5.178;2023-11-21T14:47:46;13.10;99.90
41838;DHT22;27511;52.042;5.178;2023-11-21T14:50:21;13.00;99.90
41838;DHT22;27511;52.042;5.178;2023-11-21T14:53:05;13.10;99.90
41838;DHT22;27511;52.042;5.178;2023-11-21T14:55:34;13.20;99.90
41838;DHT22;27511;52.042;5.178;2023-11-21T14:58:03;13.00;99.90
41838;DHT22;27511;52.042;5.178;2023-11-21T15:00:29;13.10;99.90
41838;DHT22;27511;52.042;5.178;2023-11-21T15:03:10;13.10;99.90
41838;DHT22;27511;52.042;5.178;2023-11-21T15:05:43;13.10;99.90
41838;DHT22;27511;52.042;5.178;2023-11-21T15:08:09;13.10;99.90
41838;DHT22;27511;52.042;5.178;2023-11-21T15:10:47;13.00;99.90
41838;DHT22;27511;52.042;5.178;2023-11-21T15:13:18;12.90;99.90
41838;DHT22;27511;52.042;5.178;2023-11-21T15:15:44;12.80;99.90
41838;DHT22;27511;52.042;5.178;2023-11-21T15:18:10;13.00;99.90
41838;DHT22;27511;52.042;5.178;2023-11-21T15:20:39;13.00;99.90
41838;DHT22;27511;52.042;5.178;2023-11-21T15:23:05;13.10;99.90
41838;DHT22;27511;52.042;5.178;2023-11-21T15:25:31;13.00;99.90
41838;DHT22;27511;52.042;5.178;2023-11-21T15:27:57;13.10;99.90
41838;DHT22;27511;52.042;5.178;2023-11-21T15:30:23;13.00;99.90
41838;DHT22;27511;52.042;5.178;2023-11-21T15:32:51;13.10;99.90
41838;DHT22;27511;52.042;5.178;2023-11-21T15:35:18;13.10;99.90
41838;DHT22;27511;52.042;5.178;2023-11-21T15:37:44;13.10;99.90